TimeEST,TemperatureF,Dew PointF,Humidity,Sea Level PressureIn,VisibilityMPH,Wind Direction,Wind SpeedMPH,Gust SpeedMPH,PrecipitationIn,Events,Conditions,WindDirDegrees,DateUTC
12:58 AM,38.5,34.0,84,29.96,10.0,SSE,2.3,-,N/A,,Mostly Cloudy,160,2013-12-02 05:58:00
1:58 AM,37.0,33.4,87,29.93,10.0,North,-9999.0,-,N/A,,Scattered Clouds,0,2013-12-02 06:58:00
2:58 AM,37.0,32.5,84,29.93,10.0,ENE,2.3,-,N/A,,Clear,70,2013-12-02 07:58:00
3:58 AM,36.1,32.9,88,29.91,10.0,Calm,Calm,-,N/A,,Overcast,0,2013-12-02 08:58:00
4:58 AM,36.3,32.7,87,29.89,10.0,East,3.5,-,N/A,,Mostly Cloudy,90,2013-12-02 09:58:00
5:58 AM,36.1,33.1,89,29.90,10.0,East,1.2,-,N/A,,Overcast,80,2013-12-02 10:58:00
6:58 AM,35.4,32.2,88,29.89,10.0,Calm,Calm,-,N/A,,Mostly Cloudy,0,2013-12-02 11:58:00
7:53 AM,32.0,32.0,100,29.86,10.0,East,3.5,-,N/A,,Mostly Cloudy,90,2013-12-02 12:53:00
7:58 AM,33.1,31.1,92,29.88,10.0,East,4.6,-,N/A,,Mostly Cloudy,100,2013-12-02 12:58:00
8:55 AM,39.9,35.6,85,29.88,10.0,Calm,Calm,-,N/A,,Overcast,0,2013-12-02 13:55:00
9:33 AM,41.0,35.6,81,29.86,10.0,ENE,1.2,-,N/A,,Mostly Cloudy,60,2013-12-02 14:33:00
9:55 AM,42.3,36.7,81,29.87,10.0,East,4.6,-,N/A,,Mostly Cloudy,90,2013-12-02 14:55:00
10:55 AM,45.1,37.8,75,29.86,10.0,ENE,1.2,-,N/A,,Mostly Cloudy,60,2013-12-02 15:55:00
11:31 AM,48.2,39.2,71,29.84,10.0,NW,2.3,-,N/A,,Mostly Cloudy,310,2013-12-02 16:31:00
11:55 AM,50.0,39.4,67,29.84,10.0,West,2.3,-,N/A,,Mostly Cloudy,260,2013-12-02 16:55:00
12:55 PM,54.9,39.6,56,29.81,10.0,Variable,2.3,-,N/A,,Mostly Cloudy,0,2013-12-02 17:55:00
1:55 PM,54.9,40.6,59,29.78,10.0,SSE,4.6,-,N/A,,Mostly Cloudy,150,2013-12-02 18:55:00
2:55 PM,54.9,41.4,60,29.77,10.0,SE,3.5,-,N/A,,Overcast,140,2013-12-02 19:55:00
3:55 PM,54.0,41.7,63,29.77,10.0,SSE,3.5,-,N/A,,Overcast,150,2013-12-02 20:55:00
4:55 PM,52.7,41.9,67,29.77,10.0,SE,3.5,-,N/A,,Overcast,130,2013-12-02 21:55:00
5:55 PM,51.1,41.7,70,29.78,10.0,East,3.5,-,N/A,,Overcast,90,2013-12-02 22:55:00
6:55 PM,49.6,41.7,74,29.78,10.0,East,4.6,-,N/A,,Overcast,90,2013-12-02 23:55:00
7:58 PM,49.8,41.7,74,29.80,10.0,SSE,2.3,-,N/A,,Overcast,160,2013-12-03 00:58:00
8:55 PM,47.1,42.1,83,29.79,10.0,Calm,Calm,-,N/A,,Overcast,0,2013-12-03 01:55:00
9:58 PM,47.1,42.6,84,29.81,10.0,Calm,Calm,-,N/A,,Overcast,0,2013-12-03 02:58:00
10:58 PM,47.5,43.2,85,29.79,10.0,Calm,Calm,-,N/A,,Overcast,0,2013-12-03 03:58:00
11:58 PM,44.2,41.9,91,29.79,10.0,Calm,Calm,-,N/A,,Partly Cloudy,0,2013-12-03 04:58:00